This is the latest recevied weather packets stored in our database for station/object KE8WMS. If no packets are shown the sender has not sent any weather packets the latest 10 day(s).
| Time | Temp. | Humidity | Pressure | Rain* | Wind** | Luminosity | Snow |
|---|---|---|---|---|---|---|---|
| 1787672947 | 22.78° C | 77% | 1016 hPa | 0 mm | - | 187 W/m² | - |
| 1787672642 | 22.78° C | 78% | 1015.9 hPa | 0 mm | - | 695 W/m² | - |
| 1787672341 | 22.22° C | 78% | 1016 hPa | 0 mm | - | 575 W/m² | - |
| 1787672036 | 22.22° C | 79% | 1016 hPa | 0 mm | - | 218 W/m² | - |
| 1787671731 | 22.22° C | 78% | 1016 hPa | 0 mm | - | 198 W/m² | - |
| 1787671431 | 22.78° C | 78% | 1015.8 hPa | 0 mm | - | 730 W/m² | - |
| 1787671126 | 22.78° C | 78% | 1016 hPa | 0 mm | - | 654 W/m² | - |
| 1787670822 | 21.67° C | 79% | 1015.8 hPa | 0 mm | - | 683 W/m² | - |
| 1787670522 | 21.67° C | 81% | 1015.6 hPa | 0 mm | - | 183 W/m² | - |
| 1787670216 | 21.11° C | 82% | 1016 hPa | 0 mm | - | 145 W/m² | - |
| 1787669916 | 21.11° C | 82% | 1015.8 hPa | 0 mm | - | 208 W/m² | - |
| 1787669611 | 21.67° C | 81% | 1015.6 hPa | 0 mm | - | 123 W/m² | - |
| 1787669306 | 21.11° C | 82% | 1015.4 hPa | 0 mm | - | 575 W/m² | - |
| 1787669002 | 21.67° C | 82% | 1015.2 hPa | 0 mm | - | 88 W/m² | - |
| 1787668698 | 22.22° C | 79% | 1015.3 hPa | 0 mm | - | 116 W/m² | - |
| 1787668394 | 21.67° C | 79% | 1015.3 hPa | 0 mm | - | 179 W/m² | - |
| 1787668094 | 21.67° C | 80% | 1015.2 hPa | 0 mm | - | 218 W/m² | - |
| 1787667789 | 21.67° C | 81% | 1015.3 hPa | 0 mm | - | 185 W/m² | - |
| 1787667485 | 21.67° C | 81% | 1015.3 hPa | 0 mm | - | 146 W/m² | - |
| 1787667181 | 21.67° C | 81% | 1015.4 hPa | 0 mm | - | 143 W/m² | - |
| 1787666880 | 21.11° C | 81% | 1015.2 hPa | 0 mm | - | 154 W/m² | - |
| 1787666577 | 21.11° C | 82% | 1015.4 hPa | 0 mm | - | 141 W/m² | - |
| 1787666276 | 21.67° C | 81% | 1015.6 hPa | 0 mm | - | 119 W/m² | - |
| 1787665972 | 21.11° C | 84% | 1015.3 hPa | 0 mm | - | 116 W/m² | - |
| 1787665668 | 20.56° C | 85% | 1015.6 hPa | 0 mm | - | 93 W/m² | - |
* Rain latest hour (hover to see other rain measurements)
** Current wind speed in m/s (hover to see current wind gust speed)